createdAt,value
2018-05-02T00:00:06.912Z,101153.74
2018-05-02T00:02:33.623Z,101153.50
2018-05-02T00:05:01.116Z,101150.44
2018-05-02T00:07:27.816Z,101146.58
2018-05-02T00:09:54.742Z,101152.58
2018-05-02T00:12:21.480Z,101141.95
2018-05-02T00:14:48.132Z,101141.14
2018-05-02T00:17:14.813Z,101142.75
2018-05-02T00:19:41.468Z,101144.07
2018-05-02T00:22:08.289Z,101142.60
2018-05-02T00:24:34.908Z,101141.66
2018-05-02T00:27:02.331Z,101143.81
2018-05-02T00:29:28.973Z,101137.98
2018-05-02T00:31:55.604Z,101142.88
2018-05-02T00:34:22.276Z,101140.72
2018-05-02T00:36:49.778Z,101134.34
2018-05-02T00:39:16.500Z,101133.16
2018-05-02T00:41:43.201Z,101132.61
2018-05-02T00:44:10.520Z,101127.98
2018-05-02T00:46:37.250Z,101125.45
2018-05-02T00:49:16.010Z,101124.38
2018-05-02T00:51:42.871Z,101119.08
2018-05-02T00:54:10.381Z,101121.72
2018-05-02T00:56:37.365Z,101125.47
2018-05-02T00:59:04.256Z,101124.41
2018-05-02T01:01:31.075Z,101124.27
2018-05-02T01:03:59.194Z,101122.02
2018-05-02T01:06:26.058Z,101130.78
2018-05-02T01:08:52.875Z,101128.91
2018-05-02T01:11:19.576Z,101122.66
2018-05-02T01:13:47.129Z,101125.31
2018-05-02T01:16:14.715Z,101127.83
2018-05-02T01:18:41.638Z,101131.16
2018-05-02T01:21:09.325Z,101143.14
2018-05-02T01:23:36.022Z,101142.72
2018-05-02T01:26:03.327Z,101138.22
2018-05-02T01:28:29.984Z,101137.27
2018-05-02T01:30:56.696Z,101140.86
2018-05-02T01:33:23.504Z,101140.20
2018-05-02T01:35:50.968Z,101144.84
2018-05-02T01:38:18.674Z,101137.81
2018-05-02T01:40:46.208Z,101143.92
2018-05-02T01:43:13.909Z,101143.64
2018-05-02T01:45:40.748Z,101144.84
2018-05-02T01:48:07.464Z,101150.16
2018-05-02T01:50:34.285Z,101147.47
2018-05-02T01:53:00.979Z,101152.79
2018-05-02T01:55:27.976Z,101148.94
2018-05-02T01:57:55.636Z,101148.81
2018-05-02T02:00:23.509Z,101153.31
2018-05-02T02:02:50.580Z,101144.39
2018-05-02T02:05:17.434Z,101146.52
2018-05-02T02:07:44.309Z,101140.83
2018-05-02T02:10:11.307Z,101136.96
2018-05-02T02:12:37.988Z,101137.75
2018-05-02T02:15:04.751Z,101136.58
2018-05-02T02:17:31.771Z,101134.95
2018-05-02T02:19:58.641Z,101130.83
2018-05-02T02:22:25.427Z,101122.09
2018-05-02T02:24:52.382Z,101120.34
2018-05-02T02:27:20.207Z,101119.27
2018-05-02T02:29:47.381Z,101118.48
2018-05-02T02:32:14.504Z,101112.93
2018-05-02T02:34:41.424Z,101109.19
2018-05-02T02:37:09.124Z,101109.05
2018-05-02T02:39:36.607Z,101110.27
2018-05-02T02:42:03.699Z,101105.47
2018-05-02T02:44:31.118Z,101103.88
2018-05-02T02:46:58.475Z,101102.02
2018-05-02T02:49:25.588Z,101109.19
2018-05-02T02:51:53.448Z,101105.44
2018-05-02T02:54:21.992Z,101106.77
2018-05-02T02:56:48.912Z,101100.52
2018-05-02T02:59:15.676Z,101099.58
2018-05-02T03:01:42.440Z,101103.69
2018-05-02T03:04:09.076Z,101097.56
2018-05-02T03:06:35.727Z,101095.16
2018-05-02T03:09:02.391Z,101100.06
2018-05-02T03:11:29.462Z,101098.48
2018-05-02T03:13:56.319Z,101093.58
2018-05-02T03:16:23.164Z,101094.89
2018-05-02T03:18:49.996Z,101088.11
2018-05-02T03:21:17.066Z,101085.05
2018-05-02T03:23:43.721Z,101082.30
2018-05-02T03:26:10.370Z,101081.48
2018-05-02T03:28:37.845Z,101084.54
2018-05-02T03:31:05.255Z,101086.12
2018-05-02T03:33:32.040Z,101085.87
2018-05-02T03:35:59.795Z,101088.66
2018-05-02T03:38:27.209Z,101081.06
2018-05-02T03:40:54.853Z,101082.53
2018-05-02T03:43:21.596Z,101083.58
2018-05-02T03:45:48.462Z,101081.61
2018-05-02T03:48:15.127Z,101082.92
2018-05-02T03:50:41.793Z,101081.95
2018-05-02T03:53:08.748Z,101077.44
2018-05-02T03:55:35.435Z,101075.96
2018-05-02T03:58:02.298Z,101080.48
2018-05-02T04:00:47.474Z,101086.83
2018-05-02T04:03:33.213Z,101098.49
2018-05-02T04:06:16.090Z,101103.92
2018-05-02T04:08:43.792Z,101102.73
2018-05-02T04:11:10.475Z,101109.94
2018-05-02T04:13:37.098Z,101108.22
2018-05-02T04:16:03.931Z,101114.60
2018-05-02T04:18:30.661Z,101114.60
2018-05-02T04:20:57.334Z,101120.70
2018-05-02T04:23:25.489Z,101123.09
2018-05-02T04:25:52.106Z,101127.22
2018-05-02T04:28:19.616Z,101126.16
2018-05-02T04:30:46.988Z,101128.56
2018-05-02T04:33:14.345Z,101138.28
2018-05-02T04:35:42.721Z,101140.79
2018-05-02T04:38:09.341Z,101136.47
2018-05-02T04:40:36.121Z,101145.36
2018-05-02T04:43:02.836Z,101137.30
2018-05-02T04:45:30.219Z,101143.44
2018-05-02T04:47:58.586Z,101146.38
2018-05-02T04:50:26.032Z,101141.51
2018-05-02T04:52:52.743Z,101139.14
2018-05-02T04:55:20.248Z,101140.06
2018-05-02T04:57:47.597Z,101142.22
2018-05-02T05:00:14.225Z,101146.59
2018-05-02T05:02:41.776Z,101143.53
2018-05-02T05:05:10.536Z,101146.59
2018-05-02T05:07:37.166Z,101145.00
2018-05-02T05:10:03.908Z,101144.89
2018-05-02T05:12:31.230Z,101153.36
2018-05-02T05:14:58.026Z,101158.00
2018-05-02T05:17:25.572Z,101150.34
2018-05-02T05:19:52.882Z,101152.20
2018-05-02T05:22:19.542Z,101146.66
2018-05-02T05:24:46.234Z,101147.07
2018-05-02T05:27:12.892Z,101146.45
2018-05-02T05:29:39.564Z,101149.02
2018-05-02T05:32:06.969Z,101151.58
2018-05-02T05:34:34.326Z,101154.20
2018-05-02T05:37:01.944Z,101159.71
2018-05-02T05:39:29.568Z,101153.77
2018-05-02T05:41:56.324Z,101152.84
2018-05-02T05:44:23.020Z,101155.00
2018-05-02T05:46:50.563Z,101155.58
2018-05-02T05:49:17.311Z,101153.59
2018-05-02T05:51:44.790Z,101148.83
2018-05-02T05:54:11.914Z,101152.50
2018-05-02T05:56:38.365Z,101153.28
2018-05-02T05:59:06.664Z,101146.90
2018-05-02T06:01:34.148Z,101151.09
2018-05-02T06:04:00.939Z,101152.59
2018-05-02T06:06:28.855Z,101151.38
2018-05-02T06:08:55.545Z,101160.95
2018-05-02T06:11:23.321Z,101160.39
2018-05-02T06:13:50.799Z,101156.25
2018-05-02T06:16:18.075Z,101156.20
2018-05-02T06:18:44.988Z,101153.14
2018-05-02T06:21:11.905Z,101152.55
2018-05-02T06:23:40.125Z,101150.59
2018-05-02T06:26:06.754Z,101153.49
2018-05-02T06:28:33.400Z,101152.31
2018-05-02T06:31:01.785Z,101149.88
2018-05-02T06:33:28.568Z,101151.40
2018-05-02T06:35:55.181Z,101149.42
2018-05-02T06:38:21.888Z,101156.84
2018-05-02T06:40:48.570Z,101147.55
2018-05-02T06:43:15.312Z,101151.65
2018-05-02T06:45:42.328Z,101141.20
2018-05-02T06:48:09.175Z,101144.02
2018-05-02T06:50:35.951Z,101152.20
2018-05-02T06:53:02.652Z,101148.98
2018-05-02T06:55:29.297Z,101144.08
2018-05-02T06:57:55.925Z,101142.31
2018-05-02T07:00:22.634Z,101144.75
2018-05-02T07:02:51.055Z,101139.52
2018-05-02T07:05:18.579Z,101142.68
2018-05-02T07:07:45.215Z,101141.62
2018-05-02T07:10:12.697Z,101136.20
2018-05-02T07:12:39.347Z,101132.54
2018-05-02T07:15:05.956Z,101134.58
2018-05-02T07:17:33.654Z,101143.42
2018-05-02T07:20:00.401Z,101141.49
2018-05-02T07:22:27.056Z,101142.53
2018-05-02T07:24:53.932Z,101139.59
2018-05-02T07:27:20.625Z,101132.28
2018-05-02T07:29:47.924Z,101133.45
2018-05-02T07:32:14.597Z,101135.54
2018-05-02T07:34:43.594Z,101132.47
2018-05-02T07:37:10.644Z,101139.19
2018-05-02T07:39:37.487Z,101138.24
2018-05-02T07:42:04.127Z,101136.53
2018-05-02T07:44:31.508Z,101135.13
2018-05-02T07:46:58.216Z,101133.86
2018-05-02T07:49:24.845Z,101133.75
2018-05-02T07:51:51.686Z,101124.85
2018-05-02T07:54:18.445Z,101128.00
2018-05-02T07:56:47.473Z,101130.81
2018-05-02T07:59:14.199Z,101122.43
2018-05-02T08:01:42.417Z,101120.48
2018-05-02T08:04:09.794Z,101117.66
2018-05-02T08:06:36.466Z,101120.44
2018-05-02T08:09:03.812Z,101115.13
2018-05-02T08:11:30.512Z,101122.61
2018-05-02T08:13:57.430Z,101117.84
2018-05-02T08:16:24.626Z,101109.73
2018-05-02T08:18:52.096Z,101115.09
2018-05-02T08:21:20.090Z,101108.81
2018-05-02T08:23:47.108Z,101108.33
2018-05-02T08:26:13.828Z,101103.43
2018-05-02T08:28:40.949Z,101108.55
2018-05-02T08:31:08.396Z,101105.32
2018-05-02T08:33:36.809Z,101094.97
2018-05-02T08:36:04.357Z,101090.05
2018-05-02T08:38:31.919Z,101091.80
2018-05-02T08:41:01.256Z,101091.96
2018-05-02T08:43:28.773Z,101084.37
2018-05-02T08:45:56.144Z,101093.74
2018-05-02T08:48:23.781Z,101092.34
2018-05-02T08:50:51.179Z,101090.29
2018-05-02T08:53:18.072Z,101086.59
2018-05-02T08:55:44.755Z,101084.16
2018-05-02T08:58:12.305Z,101066.00
2018-05-02T09:00:39.015Z,101057.66
2018-05-02T09:03:05.782Z,101059.84
2018-05-02T09:05:53.159Z,101052.47
2018-05-02T09:08:19.831Z,101056.28
2018-05-02T09:10:48.551Z,101059.34
2018-05-02T09:13:15.194Z,101056.55
2018-05-02T09:15:41.854Z,101054.36
2018-05-02T09:18:08.748Z,101044.73
2018-05-02T09:20:36.217Z,101042.83
2018-05-02T09:23:03.091Z,101043.37
2018-05-02T09:25:29.806Z,101038.80
2018-05-02T09:27:56.754Z,101034.63
2018-05-02T09:30:23.466Z,101029.20
2018-05-02T09:32:50.106Z,101028.50
2018-05-02T09:35:17.811Z,101026.43
2018-05-02T09:37:44.575Z,101032.94
2018-05-02T09:40:12.493Z,101030.16
2018-05-02T09:42:39.889Z,101022.50
2018-05-02T09:45:06.506Z,101020.47
2018-05-02T09:47:33.196Z,101023.30
2018-05-02T09:49:59.850Z,101020.43
2018-05-02T09:52:27.208Z,101016.89
2018-05-02T09:54:54.668Z,101012.70
2018-05-02T09:57:22.089Z,101016.87
2018-05-02T09:59:48.765Z,101006.10
2018-05-02T10:02:16.139Z,101003.42
2018-05-02T10:04:42.876Z,101004.00
2018-05-02T10:07:10.279Z,100999.00
2018-05-02T10:09:37.008Z,100995.53
2018-05-02T10:12:03.670Z,100995.20
2018-05-02T10:14:30.279Z,101008.98
2018-05-02T10:16:56.909Z,101016.80
2018-05-02T10:19:24.626Z,101011.11
2018-05-02T10:21:52.028Z,101003.99
2018-05-02T10:24:19.090Z,100999.48
2018-05-02T10:26:45.902Z,100998.96
2018-05-02T10:29:12.596Z,101001.31
2018-05-02T10:31:39.237Z,101000.70
2018-05-02T10:34:06.012Z,101000.16
2018-05-02T10:36:34.219Z,100998.83
2018-05-02T10:39:00.884Z,101003.58
2018-05-02T10:41:27.501Z,101008.08
2018-05-02T10:43:54.179Z,101004.70
2018-05-02T10:46:20.852Z,101001.44
2018-05-02T10:48:48.244Z,100992.05
2018-05-02T10:51:14.872Z,100988.97
2018-05-02T10:53:42.740Z,100987.52
2018-05-02T10:56:09.489Z,100987.27
2018-05-02T10:58:36.756Z,100985.43
2018-05-02T11:01:03.567Z,100983.15
2018-05-02T11:03:30.979Z,100985.71
2018-05-02T11:05:57.652Z,100978.68
2018-05-02T11:08:26.434Z,100975.34
2018-05-02T11:10:53.824Z,100970.38
2018-05-02T11:13:20.512Z,100977.75
2018-05-02T11:15:47.323Z,100962.66
2018-05-02T11:18:15.369Z,100962.33
2018-05-02T11:20:42.257Z,100957.49
2018-05-02T11:23:09.721Z,100968.25
2018-05-02T11:25:36.793Z,100954.03
2018-05-02T11:28:03.510Z,100960.41
2018-05-02T11:30:30.216Z,100954.73
2018-05-02T11:32:57.651Z,100950.15
2018-05-02T11:35:24.381Z,100944.14
2018-05-02T11:37:51.945Z,100949.96
2018-05-02T11:40:19.428Z,100945.77
2018-05-02T11:42:46.133Z,100937.12
2018-05-02T11:45:13.629Z,100937.08
2018-05-02T11:47:41.113Z,100932.15
2018-05-02T11:50:07.794Z,100932.20
2018-05-02T11:52:36.861Z,100933.21
2018-05-02T11:55:03.516Z,100933.00
2018-05-02T11:57:30.121Z,100925.23
2018-05-02T11:59:57.031Z,100920.13
2018-05-02T12:02:24.448Z,100913.11
2018-05-02T12:04:51.335Z,100911.20
2018-05-02T12:07:18.303Z,100907.92
2018-05-02T12:09:45.033Z,100915.20
2018-05-02T12:12:13.336Z,100904.13
2018-05-02T12:14:39.997Z,100920.18
2018-05-02T12:17:06.677Z,100916.34
2018-05-02T12:19:34.124Z,100898.92
2018-05-02T12:22:00.985Z,100899.70
2018-05-02T12:24:27.544Z,100898.69
2018-05-02T12:26:55.518Z,100889.48
2018-05-02T12:29:22.220Z,100878.78
2018-05-02T12:31:49.616Z,100890.81
2018-05-02T12:34:16.450Z,100893.20
2018-05-02T12:36:43.170Z,100883.48
2018-05-02T12:39:09.993Z,100881.52
2018-05-02T12:41:36.661Z,100879.98
2018-05-02T12:44:04.024Z,100883.39
2018-05-02T12:46:31.003Z,100875.06
2018-05-02T12:48:57.771Z,100868.19
2018-05-02T12:51:24.747Z,100865.90
2018-05-02T12:53:53.135Z,100863.47
2018-05-02T12:56:20.727Z,100858.73
2018-05-02T12:58:48.895Z,100850.30
2018-05-02T13:01:16.478Z,100848.62
2018-05-02T13:03:44.320Z,100841.86
2018-05-02T13:06:11.730Z,100841.16
2018-05-02T13:08:38.497Z,100828.73
2018-05-02T13:11:05.316Z,100829.00
2018-05-02T13:13:32.334Z,100827.25
2018-05-02T13:15:59.830Z,100817.00
2018-05-02T13:18:26.595Z,100818.30
2018-05-02T13:20:53.325Z,100812.67
2018-05-02T13:23:20.426Z,100821.23
2018-05-02T13:25:47.511Z,100807.34
2018-05-02T13:28:14.952Z,100802.82
2018-05-02T13:30:43.556Z,100793.98
2018-05-02T13:33:10.454Z,100793.07
2018-05-02T13:35:38.598Z,100795.85
2018-05-02T13:38:05.479Z,100787.82
2018-05-02T13:40:32.449Z,100786.00
2018-05-02T13:42:59.160Z,100777.50
2018-05-02T13:45:25.920Z,100772.42
2018-05-02T13:47:52.597Z,100769.90
2018-05-02T13:50:20.131Z,100771.95
2018-05-02T13:52:47.219Z,100757.29
2018-05-02T13:55:14.672Z,100752.35
2018-05-02T13:57:42.242Z,100755.05
2018-05-02T14:00:09.314Z,100750.89
2018-05-02T14:02:36.981Z,100749.18
2018-05-02T14:05:03.952Z,100744.15
2018-05-02T14:07:31.002Z,100737.20
2018-05-02T14:09:57.792Z,100730.04
2018-05-02T14:12:25.384Z,100732.50
2018-05-02T14:14:52.326Z,100729.90
2018-05-02T14:17:19.125Z,100727.54
2018-05-02T14:19:46.581Z,100727.43
2018-05-02T14:22:14.023Z,100718.61
2018-05-02T14:24:41.803Z,100723.11
2018-05-02T14:27:09.356Z,100727.16
2018-05-02T14:29:36.468Z,100724.52
2018-05-02T14:32:03.337Z,100728.52
2018-05-02T14:34:30.114Z,100724.19
2018-05-02T14:36:57.027Z,100718.39
2018-05-02T14:39:24.617Z,100718.45
2018-05-02T14:41:52.100Z,100707.55
2018-05-02T14:44:19.071Z,100709.62
2018-05-02T14:46:46.585Z,100709.88
2018-05-02T14:49:13.321Z,100699.23
2018-05-02T14:51:40.768Z,100697.11
2018-05-02T14:54:07.449Z,100700.36
2018-05-02T14:56:34.114Z,100698.12
2018-05-02T14:59:01.009Z,100707.74
2018-05-02T15:01:28.513Z,100698.78
2018-05-02T15:03:55.900Z,100702.48
2018-05-02T15:06:22.605Z,100696.27
2018-05-02T15:08:50.707Z,100687.37
2018-05-02T15:11:17.446Z,100683.98
2018-05-02T15:13:44.193Z,100689.31
2018-05-02T15:16:11.624Z,100686.81
2018-05-02T15:18:38.534Z,100688.57
2018-05-02T15:21:05.225Z,100691.21
2018-05-02T15:23:33.332Z,100687.81
2018-05-02T15:26:00.700Z,100688.37
2018-05-02T15:28:27.401Z,100694.47
2018-05-02T15:30:54.324Z,100694.22
2018-05-02T15:33:20.968Z,100701.55
2018-05-02T15:35:48.501Z,100699.55
2018-05-02T15:38:15.174Z,100700.58
2018-05-02T15:40:42.080Z,100695.59
2018-05-02T15:43:09.187Z,100684.55
2018-05-02T15:45:35.857Z,100686.39
2018-05-02T15:48:02.817Z,100694.59
2018-05-02T15:50:29.980Z,100688.83
2018-05-02T15:52:56.668Z,100689.23
2018-05-02T15:55:24.111Z,100684.77
2018-05-02T15:57:50.765Z,100687.43
2018-05-02T16:00:18.223Z,100680.17
2018-05-02T16:02:47.647Z,100674.97
2018-05-02T16:05:14.270Z,100680.31
2018-05-02T16:07:41.649Z,100677.86
2018-05-02T16:10:10.341Z,100680.67
2018-05-02T16:12:37.102Z,100680.71
2018-05-02T16:15:04.731Z,100684.58
2018-05-02T16:17:32.056Z,100680.56
2018-05-02T16:19:58.753Z,100686.48
2018-05-02T16:22:26.289Z,100675.37
2018-05-02T16:24:52.951Z,100681.48
2018-05-02T16:27:19.726Z,100677.72
2018-05-02T16:29:46.880Z,100675.02
2018-05-02T16:32:13.570Z,100674.97
2018-05-02T16:34:40.273Z,100674.76
2018-05-02T16:37:09.256Z,100671.47
2018-05-02T16:39:35.905Z,100676.48
2018-05-02T16:42:03.293Z,100668.76
2018-05-02T16:44:29.957Z,100671.66
2018-05-02T16:46:56.631Z,100676.08
2018-05-02T16:49:23.349Z,100673.11
2018-05-02T16:51:50.116Z,100672.70
2018-05-02T16:54:17.696Z,100673.22
2018-05-02T16:56:45.168Z,100667.80
2018-05-02T16:59:11.859Z,100672.36
2018-05-02T17:01:38.518Z,100673.95
2018-05-02T17:04:06.547Z,100673.84
2018-05-02T17:06:33.205Z,100675.59
2018-05-02T17:09:00.055Z,100674.70
2018-05-02T17:11:27.269Z,100669.55
2018-05-02T17:13:54.016Z,100670.23
2018-05-02T17:16:20.829Z,100671.13
2018-05-02T17:18:49.118Z,100671.23
2018-05-02T17:21:15.760Z,100673.72
2018-05-02T17:23:42.562Z,100670.59
2018-05-02T17:26:10.001Z,100667.18
2018-05-02T17:28:36.722Z,100673.80
2018-05-02T17:31:03.597Z,100680.66
2018-05-02T17:33:30.385Z,100680.22
2018-05-02T17:35:57.300Z,100678.95
2018-05-02T17:38:24.824Z,100687.30
2018-05-02T17:40:51.511Z,100683.78
2018-05-02T17:43:18.433Z,100682.45
2018-05-02T17:45:45.922Z,100691.54
2018-05-02T17:48:12.657Z,100689.48
2018-05-02T17:50:39.364Z,100702.21
2018-05-02T17:53:07.067Z,100700.27
2018-05-02T17:55:33.931Z,100698.23
2018-05-02T17:58:00.556Z,100696.27
2018-05-02T18:00:28.023Z,100695.47
2018-05-02T18:02:54.766Z,100704.02
2018-05-02T18:05:21.485Z,100705.94
2018-05-02T18:07:48.195Z,100710.42
2018-05-02T18:10:15.610Z,100708.56
2018-05-02T18:12:42.409Z,100708.44
2018-05-02T18:15:10.204Z,100724.78
2018-05-02T18:17:36.974Z,100724.61
2018-05-02T18:20:04.465Z,100720.62
2018-05-02T18:22:31.956Z,100729.03
2018-05-02T18:24:59.042Z,100732.95
2018-05-02T18:27:25.727Z,100724.49
2018-05-02T18:29:52.478Z,100734.69
2018-05-02T18:32:19.229Z,100731.96
2018-05-02T18:34:45.958Z,100735.34
2018-05-02T18:37:12.875Z,100736.50
2018-05-02T18:39:41.254Z,100735.83
2018-05-02T18:42:08.692Z,100740.21
2018-05-02T18:44:35.389Z,100744.56
2018-05-02T18:47:02.066Z,100753.08
2018-05-02T18:49:28.778Z,100747.81
2018-05-02T18:51:55.440Z,100748.27
2018-05-02T18:54:22.120Z,100745.83
2018-05-02T18:56:48.850Z,100755.47
2018-05-02T18:59:17.053Z,100744.50
2018-05-02T19:01:43.756Z,100758.30
2018-05-02T19:04:10.498Z,100753.08
2018-05-02T19:06:37.910Z,100756.41
2018-05-02T19:09:04.655Z,100763.08
2018-05-02T19:11:31.390Z,100764.69
2018-05-02T19:14:01.101Z,100766.39
2018-05-02T19:16:27.754Z,100769.42
2018-05-02T19:19:00.604Z,100778.98
2018-05-02T19:21:27.282Z,100770.48
2018-05-02T19:23:54.044Z,100780.30
2018-05-02T19:26:27.541Z,100782.77
2018-05-02T19:28:54.205Z,100789.48
2018-05-02T19:31:26.936Z,100783.64
2018-05-02T19:33:54.562Z,100788.65
2018-05-02T19:36:21.209Z,100794.03
2018-05-02T19:38:47.917Z,100798.72
2018-05-02T19:41:21.411Z,100800.78
2018-05-02T19:43:54.940Z,100801.33
2018-05-02T19:46:21.653Z,100803.35
2018-05-02T19:48:49.090Z,100806.98
2018-05-02T19:51:21.997Z,100815.63
2018-05-02T19:53:49.339Z,100811.29
2018-05-02T19:56:16.001Z,100813.88
2018-05-02T19:58:42.902Z,100811.02
2018-05-02T20:01:15.703Z,100817.66
2018-05-02T20:03:42.426Z,100819.67
2018-05-02T20:06:09.056Z,100820.86
2018-05-02T20:08:41.788Z,100821.99
2018-05-02T20:11:15.312Z,100823.80
2018-05-02T20:13:48.770Z,100827.31
2018-05-02T20:16:15.476Z,100830.52
2018-05-02T20:18:42.178Z,100825.95
2018-05-02T20:21:09.606Z,100825.53
2018-05-02T20:23:36.347Z,100826.41
2018-05-02T20:26:03.016Z,100833.20
2018-05-02T20:28:30.375Z,100834.86
2018-05-02T20:30:57.945Z,100832.27
2018-05-02T20:33:25.307Z,100838.88
2018-05-02T20:35:52.005Z,100835.11
2018-05-02T20:38:18.743Z,100835.80
2018-05-02T20:40:45.437Z,100836.52
2018-05-02T20:43:12.149Z,100843.39
2018-05-02T20:45:39.535Z,100842.12
2018-05-02T20:48:06.193Z,100851.05
2018-05-02T20:50:32.845Z,100854.19
2018-05-02T20:52:59.547Z,100853.34
2018-05-02T20:55:26.213Z,100858.45
2018-05-02T20:57:53.044Z,100853.44
2018-05-02T21:00:19.776Z,100855.56
2018-05-02T21:02:46.691Z,100857.36
2018-05-02T21:05:14.238Z,100849.77
2018-05-02T21:07:41.610Z,100857.25
2018-05-02T21:10:08.289Z,100854.30
2018-05-02T21:12:35.082Z,100855.39
2018-05-02T21:15:01.712Z,100853.13
2018-05-02T21:17:28.345Z,100851.88
2018-05-02T21:19:55.001Z,100851.92
2018-05-02T21:22:22.408Z,100854.66
2018-05-02T21:24:49.061Z,100857.52
2018-05-02T21:27:15.829Z,100856.80
2018-05-02T21:29:42.472Z,100865.73
2018-05-02T21:32:09.896Z,100876.70
2018-05-02T21:34:36.548Z,100864.80
2018-05-02T21:37:03.240Z,100868.59
2018-05-02T21:39:29.869Z,100878.44
2018-05-02T21:41:56.655Z,100871.03
2018-05-02T21:44:23.292Z,100868.91
2018-05-02T21:46:49.952Z,100871.80
2018-05-02T21:49:16.671Z,100873.34
2018-05-02T21:51:43.324Z,100872.72
2018-05-02T21:54:10.085Z,100872.66
2018-05-02T21:56:36.682Z,100882.23
2018-05-02T21:59:03.382Z,100885.17
2018-05-02T22:01:30.054Z,100884.56
2018-05-02T22:03:56.732Z,100891.34
2018-05-02T22:06:24.280Z,100893.65
2018-05-02T22:08:50.914Z,100895.05
2018-05-02T22:11:17.680Z,100903.12
2018-05-02T22:13:45.073Z,100898.39
2018-05-02T22:16:11.747Z,100896.10
2018-05-02T22:18:38.384Z,100898.64
2018-05-02T22:21:05.114Z,100904.61
2018-05-02T22:23:31.753Z,100903.76
2018-05-02T22:25:58.388Z,100906.04
2018-05-02T22:28:25.050Z,100910.16
2018-05-02T22:30:52.534Z,100911.61
2018-05-02T22:33:19.943Z,100913.09
2018-05-02T22:35:46.626Z,100916.27
2018-05-02T22:38:14.025Z,100913.64
2018-05-02T22:40:40.719Z,100922.95
2018-05-02T22:43:08.120Z,100915.04
2018-05-02T22:45:34.762Z,100923.09
2018-05-02T22:48:01.403Z,100918.13
2018-05-02T22:50:28.069Z,100922.86
2018-05-02T22:52:54.729Z,100918.03
2018-05-02T22:55:22.146Z,100919.20
2018-05-02T22:57:49.555Z,100923.03
2018-05-02T23:00:16.234Z,100923.12
2018-05-02T23:02:43.118Z,100915.63
2018-05-02T23:05:11.243Z,100924.47
2018-05-02T23:07:37.893Z,100925.29
2018-05-02T23:10:04.528Z,100929.58
2018-05-02T23:12:31.201Z,100929.27
2018-05-02T23:14:58.575Z,100930.43
2018-05-02T23:17:25.921Z,100937.45
2018-05-02T23:19:53.329Z,100938.88
2018-05-02T23:22:20.064Z,100941.25
2018-05-02T23:24:46.689Z,100942.97
2018-05-02T23:27:13.319Z,100943.73
2018-05-02T23:29:40.029Z,100950.22
2018-05-02T23:32:07.509Z,100952.67
2018-05-02T23:34:34.132Z,100953.08
2018-05-02T23:37:01.502Z,100956.19
2018-05-02T23:39:28.141Z,100955.36
2018-05-02T23:41:54.982Z,100953.75
2018-05-02T23:44:21.629Z,100953.47
2018-05-02T23:46:48.328Z,100949.84
2018-05-02T23:49:14.948Z,100961.54
2018-05-02T23:51:41.812Z,100965.56
2018-05-02T23:54:08.417Z,100969.05
2018-05-02T23:56:35.090Z,100970.70
2018-05-02T23:59:02.632Z,100970.05
